Time;durP1;ratioP1;P1;durP2;ratioP2;P2;SDS_P1;SDS_P2;PMS_P1;PMS_P2;Temp;Humidity;BMP_temperature;BMP_pressure;BME280_temperature;BME280_humidity;BME280_pressure;Samples;Min_cycle;Max_cycle;Signal;HPM_P1;HPM_P2
2022/02/06 00:00:15;;;;;;;;;6.00;5.00;;;;;14.25;40.35;98525.53;4992428;28;108911;-79
2022/02/06 00:02:45;;;;;;;;;7.50;4.00;;;;;14.22;40.06;98526.00;4989308;27;102014;-79
2022/02/06 00:05:14;;;;;;;;;4.00;3.25;;;;;14.26;39.47;98516.31;4993295;28;102025;-79
2022/02/06 00:07:42;;;;;;;;;4.75;4.00;;;;;14.25;39.78;98514.66;5004125;27;102170;-79
2022/02/06 00:10:09;;;;;;;;;6.00;6.00;;;;;14.25;40.02;98511.94;4986327;27;103328;-79
2022/02/06 00:12:40;;;;;;;;;8.25;6.00;;;;;14.25;40.19;98516.53;4979518;27;102024;-79
2022/02/06 00:15:07;;;;;;;;;8.25;6.50;;;;;14.24;39.55;98512.97;4991117;27;101960;-79
2022/02/06 00:17:34;;;;;;;;;5.25;4.25;;;;;14.25;40.70;98508.38;4997796;27;101707;-80
2022/02/06 00:20:03;;;;;;;;;5.00;4.50;;;;;14.23;40.06;98507.75;4998266;27;103459;-79
2022/02/06 00:22:46;;;;;;;;;5.00;5.00;;;;;14.23;39.78;98511.31;5000762;27;101799;-79
2022/02/06 00:26:02;;;;;;;;;5.50;5.00;;;;;14.22;40.00;98498.78;4990102;27;104386;-80
2022/02/06 00:28:20;;;;;;;;;8.25;6.00;;;;;14.23;39.93;98500.44;4992766;27;102027;-80
2022/02/06 00:30:59;;;;;;;;;5.75;4.00;;;;;14.24;39.76;98506.69;5006590;27;107963;-79
2022/02/06 00:38:02;;;;;;;;;7.00;4.00;;;;;14.24;39.85;98483.06;4994188;27;101863;-79
2022/02/06 00:41:29;;;;;;;;;5.25;4.00;;;;;14.24;40.45;98474.91;4999638;27;103472;-79
2022/02/06 00:44:02;;;;;;;;;8.25;5.00;;;;;14.24;39.69;98477.63;4999613;28;103862;-79
2022/02/06 00:46:36;;;;;;;;;6.00;5.00;;;;;14.25;39.69;98475.75;4996906;27;101857;-80
2022/02/06 00:49:13;;;;;;;;;3.00;3.00;;;;;14.25;40.41;98470.28;4999151;27;102519;-79
2022/02/06 00:51:54;;;;;;;;;4.75;4.00;;;;;14.23;39.99;98473.22;4999952;27;103534;-80
2022/02/06 00:54:21;;;;;;;;;3.75;3.25;;;;;14.23;40.06;98467.78;4991339;27;102006;-79
2022/02/06 00:56:48;;;;;;;;;6.00;4.00;;;;;14.25;39.73;98470.28;4992585;28;101847;-79
2022/02/06 00:59:15;;;;;;;;;8.00;7.00;;;;;14.23;39.70;98456.09;5012280;27;102032;-80
2022/02/06 01:01:43;;;;;;;;;4.50;4.00;;;;;14.21;39.54;98459.06;4998930;27;110498;-80
2022/02/06 01:04:10;;;;;;;;;5.50;3.75;;;;;14.23;39.98;98456.91;4978043;27;101713;-79
2022/02/06 01:06:38;;;;;;;;;7.00;6.00;;;;;14.24;39.49;98446.88;4968247;27;101981;-79
2022/02/06 01:09:05;;;;;;;;;4.25;4.00;;;;;14.23;39.67;98440.59;4981639;27;101797;-79
2022/02/06 01:11:34;;;;;;;;;5.00;4.00;;;;;14.23;40.25;98435.16;4990683;27;103293;-79
2022/02/06 01:16:34;;;;;;;;;4.50;4.50;;;;;14.24;39.74;98436.81;4992834;27;101837;-79
2022/02/06 01:19:14;;;;;;;;;7.50;4.75;;;;;14.24;40.25;98434.09;4990349;28;102643;-79
2022/02/06 01:21:58;;;;;;;;;3.75;3.50;;;;;14.24;39.77;98434.09;4994733;28;103214;-80
2022/02/06 01:24:41;;;;;;;;;7.00;5.00;;;;;14.24;39.77;98419.69;5003698;27;102021;-79
2022/02/06 01:27:16;;;;;;;;;4.50;4.00;;;;;14.23;39.57;98416.13;4997989;27;101846;-79
2022/02/06 01:32:15;;;;;;;;;4.25;3.25;;;;;14.22;39.77;98411.75;4988724;27;103463;-79
2022/02/06 01:35:09;;;;;;;;;5.75;4.00;;;;;14.23;39.88;98402.53;5000615;27;102195;-79
2022/02/06 01:37:46;;;;;;;;;4.50;4.50;;;;;14.23;40.39;98396.25;4999609;27;109199;-80
2022/02/06 01:40:37;;;;;;;;;5.50;4.00;;;;;14.22;40.18;98394.63;4994483;27;101877;-80
2022/02/06 01:43:09;;;;;;;;;4.75;3.25;;;;;14.23;39.90;98394.38;4992707;27;108135;-80
2022/02/06 02:05:09;;;;;;;;;4.75;4.25;;;;;14.28;40.16;98367.31;4990706;27;108470;-79
2022/02/06 02:30:15;;;;;;;;;3.75;3.00;;;;;14.25;40.45;98327.00;4992278;27;101746;-80
2022/02/06 02:44:06;;;;;;;;;3.25;3.00;;;;;14.30;39.99;98324.41;4999514;27;101974;-79
2022/02/06 02:46:29;;;;;;;;;5.50;2.75;;;;;14.29;39.77;98316.47;4992545;28;102094;-79
2022/02/06 02:48:58;;;;;;;;;3.00;2.50;;;;;14.28;39.61;98312.91;4984357;28;109290;-80
2022/02/06 02:51:29;;;;;;;;;3.00;3.00;;;;;14.27;39.50;98311.25;4990639;27;101668;-79
2022/02/06 02:54:02;;;;;;;;;3.50;2.75;;;;;14.27;39.45;98300.38;4990149;27;101688;-79
2022/02/06 02:56:42;;;;;;;;;5.00;4.00;;;;;14.27;39.99;98300.38;4990856;27;101854;-79
2022/02/06 02:59:26;;;;;;;;;3.50;3.00;;;;;14.26;40.06;98298.75;4991397;27;103392;-79
2022/02/06 03:01:59;;;;;;;;;3.50;2.25;;;;;14.26;39.40;98298.75;4990407;27;102113;-79
2022/02/06 03:04:26;;;;;;;;;3.00;2.50;;;;;14.26;39.16;98287.03;4993528;28;102148;-79
2022/02/06 03:06:54;;;;;;;;;5.00;4.00;;;;;14.26;39.89;98287.03;5002414;28;101849;-79
2022/02/06 03:09:22;;;;;;;;;4.50;3.00;;;;;14.26;39.70;98281.59;4997297;27;103669;-79
2022/02/06 03:11:49;;;;;;;;;3.00;3.00;;;;;14.25;39.48;98288.91;4993674;27;101884;-79
2022/02/06 03:14:22;;;;;;;;;4.00;4.00;;;;;14.27;39.85;98278.63;4998224;27;109734;-80
2022/02/06 03:17:01;;;;;;;;;3.00;2.25;;;;;14.27;39.71;98278.63;4992886;28;101762;-79
2022/02/06 03:19:39;;;;;;;;;2.75;2.75;;;;;14.28;39.66;98282.16;4991568;27;108016;-79
2022/02/06 03:22:07;;;;;;;;;4.00;3.00;;;;;14.27;40.06;98265.03;4994527;27;102036;-80
2022/02/06 03:24:41;;;;;;;;;4.25;3.25;;;;;14.28;39.84;98263.97;4986642;28;101635;-79
2022/02/06 03:27:08;;;;;;;;;3.25;3.00;;;;;14.26;39.39;98257.94;4992394;28;101944;-79
2022/02/06 03:29:35;;;;;;;;;2.25;2.00;;;;;14.26;39.53;98251.69;4998891;27;103312;-79
2022/02/06 03:32:03;;;;;;;;;4.00;3.50;;;;;14.26;39.67;98240.81;5005143;27;102154;-80
2022/02/06 03:34:30;;;;;;;;;4.75;4.50;;;;;14.25;39.48;98239.13;4995894;28;101771;-79
2022/02/06 03:36:57;;;;;;;;;3.00;3.00;;;;;14.24;39.30;98243.75;4989442;28;101693;-80
2022/02/06 03:39:27;;;;;;;;;3.00;2.25;;;;;14.23;40.07;98249.41;4985619;28;103144;-79
2022/02/06 03:42:06;;;;;;;;;2.25;2.25;;;;;14.23;39.59;98243.97;4987200;27;102456;-79
2022/02/06 03:44:40;;;;;;;;;4.75;3.00;;;;;14.24;39.62;98235.59;4988149;27;102732;-79
2022/02/06 03:47:15;;;;;;;;;2.00;2.00;;;;;14.23;39.56;98227.66;4995463;27;101977;-79
2022/02/06 03:49:54;;;;;;;;;2.25;2.25;;;;;14.21;40.20;98230.63;4996422;27;103563;-79
2022/02/06 03:52:27;;;;;;;;;4.75;3.00;;;;;14.23;39.24;98220.31;5004862;27;101805;-80
2022/02/06 03:54:54;;;;;;;;;3.00;2.00;;;;;14.23;39.93;98212.16;4990708;28;101846;-79
2022/02/06 03:57:21;;;;;;;;;3.00;2.75;;;;;14.24;39.30;98213.00;5009142;27;102130;-79
2022/02/06 03:59:48;;;;;;;;;3.00;3.00;;;;;14.25;39.26;98214.66;4996538;27;108279;-79
2022/02/06 04:02:15;;;;;;;;;3.50;2.00;;;;;14.23;39.99;98206.72;4989572;27;101829;-80
2022/02/06 04:04:42;;;;;;;;;2.75;1.75;;;;;14.24;40.03;98207.56;4987390;28;101944;-80
2022/02/06 04:07:12;;;;;;;;;2.75;2.25;;;;;14.22;39.92;98210.53;5005174;27;102150;-80
2022/02/06 04:09:46;;;;;;;;;2.25;2.00;;;;;14.21;39.79;98203.44;4991099;28;104251;-79
2022/02/06 04:12:16;;;;;;;;;4.00;3.00;;;;;14.20;39.84;98196.31;4992830;27;102063;-79
2022/02/06 04:14:54;;;;;;;;;2.00;2.00;;;;;14.18;39.74;98197.63;5000239;27;102330;-79
2022/02/06 04:17:36;;;;;;;;;3.00;3.00;;;;;14.20;39.56;98190.88;5006516;27;102043;-79
2022/02/06 04:20:05;;;;;;;;;2.00;2.00;;;;;14.20;39.43;98193.59;4992729;28;108063;-79
2022/02/06 04:22:31;;;;;;;;;4.50;3.75;;;;;14.17;39.44;98185.94;4995852;27;106189;-79
2022/02/06 04:24:59;;;;;;;;;3.00;2.00;;;;;14.17;39.73;98180.50;4999075;28;101918;-79
2022/02/06 04:27:26;;;;;;;;;3.00;2.00;;;;;14.18;39.54;98179.41;4994576;28;102377;-79
2022/02/06 04:29:53;;;;;;;;;2.00;2.00;;;;;14.17;39.07;98169.63;5000010;27;103584;-79
2022/02/06 04:32:21;;;;;;;;;2.25;2.00;;;;;14.18;39.43;98171.25;5004712;27;101968;-79
2022/02/06 04:34:49;;;;;;;;;4.00;2.00;;;;;14.18;39.08;98162.28;4990845;27;102655;-79
2022/02/06 04:37:27;;;;;;;;;2.00;2.00;;;;;14.17;39.81;98169.63;4998960;27;102142;-80
2022/02/06 05:28:42;;;;;;;;;1.00;1.00;;;;;14.23;39.60;98091.69;4986557;27;102119;-79
2022/02/06 05:31:13;;;;;;;;;1.00;1.00;;;;;14.24;40.14;98082.47;4991965;28;101882;-79
2022/02/06 05:33:41;;;;;;;;;2.00;1.00;;;;;14.23;39.60;98081.63;4991680;27;103389;-77
2022/02/06 05:36:10;;;;;;;;;1.00;1.00;;;;;14.24;39.33;98077.03;5000520;27;102185;-79
2022/02/06 05:38:37;;;;;;;;;2.50;2.50;;;;;14.23;39.98;98070.75;5003321;27;101563;-79
2022/02/06 05:41:05;;;;;;;;;1.50;1.50;;;;;14.23;39.70;98065.31;5005344;27;101869;-79
2022/02/06 05:43:33;;;;;;;;;3.00;2.00;;;;;14.20;39.87;98049.50;4988293;28;103386;-79
2022/02/06 05:46:00;;;;;;;;;0.00;0.00;;;;;14.23;39.84;98061.78;5005372;27;101964;-79
2022/02/06 05:48:27;;;;;;;;;2.00;2.00;;;;;14.22;39.41;98047.38;4996917;27;102173;-79
2022/02/06 05:50:54;;;;;;;;;3.00;1.50;;;;;14.23;40.18;98054.44;5002421;27;101980;-79
2022/02/06 05:53:21;;;;;;;;;2.00;2.00;;;;;14.23;39.65;98045.47;5006999;27;103436;-79
2022/02/06 05:55:48;;;;;;;;;1.00;1.00;;;;;14.24;39.22;98038.97;4989446;28;101849;-79
2022/02/06 05:58:15;;;;;;;;;2.75;2.00;;;;;14.24;39.55;98039.78;4987000;28;102024;-79
2022/02/06 06:00:42;;;;;;;;;1.00;1.00;;;;;14.23;39.32;98046.28;4990494;27;103043;-79
2022/02/06 06:03:09;;;;;;;;;3.25;2.00;;;;;14.25;39.73;98046.88;4976189;28;103443;-79
2022/02/06 06:05:36;;;;;;;;;2.00;1.25;;;;;14.25;39.56;98048.78;4985456;27;101996;-79
2022/02/06 06:08:03;;;;;;;;;2.00;1.75;;;;;14.23;39.67;98038.13;4994843;27;104283;-80
2022/02/06 06:10:32;;;;;;;;;1.00;1.00;;;;;14.25;39.20;98035.19;5007558;27;102177;-79
2022/02/06 06:13:00;;;;;;;;;2.50;1.00;;;;;14.24;39.39;98023.47;4990815;28;103386;-79
2022/02/06 06:15:29;;;;;;;;;3.00;2.00;;;;;14.24;39.34;98022.66;4994598;27;109200;-79
2022/02/06 06:17:57;;;;;;;;;1.50;1.50;;;;;14.23;39.76;98021.81;4994778;28;102140;-79
2022/02/06 06:20:28;;;;;;;;;2.00;2.00;;;;;14.25;39.52;98024.31;4994831;27;101945;-79
2022/02/06 06:22:55;;;;;;;;;2.00;1.50;;;;;14.23;39.25;98015.53;5004100;27;107871;-79
2022/02/06 06:25:26;;;;;;;;;1.50;1.00;;;;;14.23;39.31;98032.69;5010769;27;102009;-79
2022/02/06 06:27:55;;;;;;;;;1.75;1.75;;;;;14.22;39.82;98025.63;4991404;28;104863;-79
2022/02/06 06:30:22;;;;;;;;;2.00;2.00;;;;;14.24;39.49;98022.66;4985713;27;102715;-79
2022/02/06 06:32:49;;;;;;;;;2.00;2.00;;;;;14.22;38.99;98014.75;4997772;28;103488;-79
2022/02/06 06:35:16;;;;;;;;;2.00;1.75;;;;;14.23;39.42;98005.50;4985018;27;102190;-79
2022/02/06 06:37:44;;;;;;;;;2.00;2.00;;;;;14.25;39.35;98013.44;5000987;27;103454;-79
2022/02/06 06:40:11;;;;;;;;;2.00;1.50;;;;;14.24;39.93;97996.28;4984800;28;101771;-79
2022/02/06 06:42:38;;;;;;;;;2.00;1.25;;;;;14.24;39.57;98006.31;4974974;28;103459;-79
2022/02/06 06:45:05;;;;;;;;;1.00;1.00;;;;;14.25;39.69;98013.44;4981878;27;101725;-79
2022/02/06 06:47:32;;;;;;;;;1.50;1.50;;;;;14.25;39.74;98008.81;4979445;27;101529;-79
2022/02/06 06:50:01;;;;;;;;;2.00;1.00;;;;;14.25;39.66;98008.81;4989400;27;103383;-79
2022/02/06 06:52:28;;;;;;;;;1.00;1.00;;;;;14.25;39.45;98008.00;4985819;28;103634;-79
2022/02/06 06:55:03;;;;;;;;;2.00;1.00;;;;;14.25;39.19;98008.00;4981642;28;101969;-79
2022/02/06 06:57:39;;;;;;;;;1.00;0.00;;;;;14.24;39.00;98003.59;4982391;28;102469;-79
2022/02/06 07:02:34;;;;;;;;;0.50;0.50;;;;;14.23;39.57;97988.34;4998687;27;103637;-79
2022/02/06 07:05:06;;;;;;;;;1.00;1.00;;;;;14.23;39.08;97996.50;4988984;27;103188;-79
2022/02/06 07:07:33;;;;;;;;;1.75;1.00;;;;;14.23;39.15;97988.34;4979387;28;101644;-79
2022/02/06 07:10:01;;;;;;;;;1.00;0.75;;;;;14.24;39.52;97990.00;4989880;28;109874;-79
2022/02/06 07:12:28;;;;;;;;;1.00;1.00;;;;;14.24;39.51;97981.84;4987918;27;108085;-79
2022/02/06 07:14:56;;;;;;;;;2.00;1.00;;;;;14.23;39.44;97980.19;4987663;28;102321;-79
2022/02/06 07:17:22;;;;;;;;;2.00;1.00;;;;;14.26;39.40;97988.72;4993031;27;101926;-80
2022/02/06 07:19:50;;;;;;;;;2.00;2.00;;;;;14.25;39.25;97967.19;4996039;27;101888;-79
2022/02/06 07:22:19;;;;;;;;;0.00;0.00;;;;;14.26;39.16;97971.56;4971886;28;109221;-79
2022/02/06 07:24:47;;;;;;;;;0.50;0.50;;;;;14.26;39.22;97966.97;4978113;27;102114;-79
2022/02/06 07:29:48;;;;;;;;;1.00;1.00;;;;;14.24;39.85;97962.81;4983400;28;101685;-79
2022/02/06 07:32:15;;;;;;;;;0.25;0.25;;;;;14.25;39.67;97965.31;4990822;27;103548;-79
2022/02/06 07:34:42;;;;;;;;;1.00;1.00;;;;;14.23;39.54;97961.16;5001343;27;103571;-79
2022/02/06 07:37:09;;;;;;;;;1.25;1.25;;;;;14.24;39.88;97962.81;4988188;28;101814;-79
2022/02/06 07:39:36;;;;;;;;;1.00;1.00;;;;;14.22;39.30;97960.34;4990592;28;101947;-79
2022/02/06 07:42:04;;;;;;;;;1.75;1.00;;;;;14.23;39.88;97961.16;4999313;27;103156;-79
2022/02/06 07:44:31;;;;;;;;;1.00;1.00;;;;;14.23;39.59;97959.28;4998446;27;101983;-79
2022/02/06 07:47:11;;;;;;;;;0.75;0.75;;;;;14.23;39.42;97953.84;4999116;27;101810;-79
2022/02/06 07:49:38;;;;;;;;;2.00;1.00;;;;;14.24;39.53;97957.38;5000689;27;102044;-79
2022/02/06 07:52:05;;;;;;;;;1.00;1.00;;;;;14.22;38.92;97949.47;5006072;27;103366;-79
2022/02/06 07:54:32;;;;;;;;;1.50;1.00;;;;;14.24;38.91;97955.50;4997791;27;103191;-79
2022/02/06 07:57:02;;;;;;;;;2.00;0.25;;;;;14.25;39.21;97949.00;5007065;27;102156;-79
2022/02/06 07:59:29;;;;;;;;;1.00;1.00;;;;;14.27;39.10;97943.31;4999408;28;101797;-79
2022/02/06 08:01:56;;;;;;;;;0.25;0.25;;;;;14.28;39.19;97942.22;4985038;27;103359;-79
2022/02/06 08:04:23;;;;;;;;;1.00;1.00;;;;;14.28;39.65;97937.63;5005401;27;103248;-79
2022/02/06 08:06:50;;;;;;;;;1.00;1.00;;;;;14.28;39.44;97937.63;5001258;27;101993;-79
2022/02/06 08:09:24;;;;;;;;;1.00;1.00;;;;;14.32;39.50;97937.16;4985968;28;101682;-79
2022/02/06 08:11:51;;;;;;;;;0.50;0.50;;;;;14.33;39.54;97945.06;5000660;27;103322;-79
2022/02/06 08:17:04;;;;;;;;;1.00;1.00;;;;;14.32;39.52;97938.78;4995407;27;101570;-79
2022/02/06 08:19:31;;;;;;;;;0.50;0.50;;;;;14.36;39.62;97932.94;4994740;28;101771;-79
2022/02/06 08:21:58;;;;;;;;;1.50;1.00;;;;;14.34;39.73;97929.56;5000250;27;107888;-79
2022/02/06 08:24:25;;;;;;;;;1.00;1.00;;;;;14.36;39.62;97939.19;5009549;27;101927;-79
2022/02/06 08:26:52;;;;;;;;;1.00;1.00;;;;;14.37;38.75;97945.44;4994025;27;101828;-79
2022/02/06 08:29:19;;;;;;;;;1.00;0.25;;;;;14.36;39.33;97936.47;5004704;27;101702;-79
2022/02/06 08:31:46;;;;;;;;;1.00;1.00;;;;;14.38;38.93;97930.78;4999537;28;103475;-79
2022/02/06 08:34:13;;;;;;;;;1.00;1.00;;;;;14.39;38.89;97932.44;4999529;27;103529;-79
2022/02/06 08:36:40;;;;;;;;;1.00;1.00;;;;;14.40;38.93;97918.59;5004400;27;101740;-79
2022/02/06 08:39:07;;;;;;;;;2.00;2.00;;;;;14.42;39.05;97926.50;5006293;27;101813;-79
2022/02/06 08:41:34;;;;;;;;;1.00;1.00;;;;;14.40;39.57;97918.59;4988111;27;103505;-79
2022/02/06 08:44:02;;;;;;;;;1.75;1.00;;;;;14.41;39.31;97916.72;4999637;27;102108;-79
2022/02/06 08:46:31;;;;;;;;;0.00;0.00;;;;;14.41;38.71;97912.06;4991989;28;101782;-79
2022/02/06 08:48:58;;;;;;;;;0.00;0.00;;;;;14.41;39.21;97903.91;4998813;27;101852;-79
2022/02/06 08:51:25;;;;;;;;;1.00;0.75;;;;;14.43;39.32;97898.25;4991143;28;103635;-79
2022/02/06 08:53:53;;;;;;;;;2.50;1.00;;;;;14.42;39.49;97904.72;5001940;27;104770;-79
2022/02/06 08:56:21;;;;;;;;;1.00;1.00;;;;;14.43;39.36;97906.41;4995036;28;102156;-79
2022/02/06 08:58:48;;;;;;;;;1.75;1.75;;;;;14.43;39.56;97904.50;5024581;27;101709;-79
2022/02/06 09:01:15;;;;;;;;;1.00;1.00;;;;;14.43;38.85;97895.50;4994928;28;103589;-79
2022/02/06 09:03:42;;;;;;;;;1.00;1.00;;;;;14.44;39.24;97891.72;4990487;27;102025;-79
2022/02/06 09:06:11;;;;;;;;;1.25;1.00;;;;;14.43;39.46;97890.91;4995477;28;108698;-79
2022/02/06 09:08:39;;;;;;;;;1.00;1.00;;;;;14.43;39.03;97885.47;5002989;27;101805;-79
2022/02/06 09:11:06;;;;;;;;;1.00;1.00;;;;;14.44;39.20;97881.69;4987442;28;103375;-79
2022/02/06 09:13:33;;;;;;;;;2.00;1.00;;;;;14.45;39.23;97887.94;4984300;28;102051;-79
2022/02/06 09:16:00;;;;;;;;;1.00;1.00;;;;;14.46;39.35;97881.41;5000021;27;102103;-79
2022/02/06 09:18:27;;;;;;;;;2.75;2.75;;;;;14.45;39.35;97882.50;4994162;27;102133;-79
2022/02/06 09:20:54;;;;;;;;;2.00;2.00;;;;;14.46;39.48;97878.69;5003824;27;103431;-79
2022/02/06 09:23:22;;;;;;;;;2.50;1.75;;;;;14.45;38.94;97882.50;4995183;28;101792;-79
2022/02/06 09:25:49;;;;;;;;;1.25;1.00;;;;;14.46;39.33;97882.25;4991875;27;101838;-79
2022/02/06 09:28:16;;;;;;;;;1.25;1.25;;;;;14.46;38.83;97874.09;5004528;27;101967;-79
2022/02/06 09:30:43;;;;;;;;;2.00;1.00;;;;;14.46;39.48;97878.69;4996117;28;103277;-79
2022/02/06 09:35:38;;;;;;;;;1.00;1.00;;;;;14.46;38.96;97874.09;5000935;27;101774;-79
2022/02/06 09:38:05;;;;;;;;;2.75;2.00;;;;;14.45;39.33;97868.91;5002289;27;102013;-79
2022/02/06 09:40:37;;;;;;;;;2.75;2.00;;;;;14.47;39.30;97872.19;4981803;28;103613;-79
2022/02/06 09:43:05;;;;;;;;;1.50;1.50;;;;;14.45;39.46;97858.84;4990772;28;104677;-79
2022/02/06 09:45:33;;;;;;;;;2.25;2.00;;;;;14.47;38.78;97864.03;5000203;27;101709;-79
2022/02/06 09:48:00;;;;;;;;;1.00;1.00;;;;;14.46;38.83;97835.19;5000814;28;102565;-79
2022/02/06 09:50:29;;;;;;;;;1.75;1.25;;;;;14.46;38.88;97843.34;4993955;28;103396;-79
2022/02/06 09:52:58;;;;;;;;;1.75;1.75;;;;;14.46;38.88;97833.28;4990342;27;101816;-79
2022/02/06 09:55:25;;;;;;;;;1.50;1.00;;;;;14.46;39.23;97825.13;4992948;28;101646;-79
2022/02/06 10:00:25;;;;;;;;;2.00;2.00;;;;;14.47;39.32;97821.34;4982464;28;103422;-79
2022/02/06 10:02:53;;;;;;;;;1.00;1.00;;;;;14.47;39.37;97815.06;5002256;27;102647;-79
2022/02/06 10:05:21;;;;;;;;;2.00;1.50;;;;;14.48;39.08;97811.28;5000458;28;103455;-79
2022/02/06 10:08:15;;;;;;;;;2.50;2.00;;;;;14.47;39.11;97806.91;4998915;27;102200;-79
2022/02/06 10:11:08;;;;;;;;;1.50;1.50;;;;;14.48;38.77;97805.84;4992831;28;108218;-79
2022/02/06 10:13:37;;;;;;;;;1.75;1.00;;;;;14.47;39.20;97798.75;5016701;27;102698;-79
2022/02/06 10:16:05;;;;;;;;;1.50;1.00;;;;;14.47;39.24;97804.19;4994020;27;101924;-80
2022/02/06 10:18:32;;;;;;;;;2.00;1.25;;;;;14.45;38.67;97785.41;4995329;27;101725;-79
2022/02/06 10:20:59;;;;;;;;;1.50;1.50;;;;;14.46;39.39;97778.06;4993646;27;103395;-79
2022/02/06 10:23:37;;;;;;;;;1.00;0.25;;;;;14.46;39.05;97786.22;5002866;27;101956;-79
2022/02/06 10:26:19;;;;;;;;;1.25;1.25;;;;;14.46;39.24;97788.94;4993659;27;102008;-79
2022/02/06 10:28:58;;;;;;;;;1.00;0.75;;;;;14.43;38.69;97771.22;4996902;28;101908;-79
2022/02/06 10:31:25;;;;;;;;;1.00;1.00;;;;;14.44;39.37;97769.34;5009867;27;103138;-79
2022/02/06 10:33:53;;;;;;;;;2.00;1.00;;;;;14.44;39.40;97755.72;5008268;27;101674;-79
2022/02/06 10:36:27;;;;;;;;;1.25;1.00;;;;;14.44;38.90;97753.00;5008428;27;104478;-79
2022/02/06 10:39:01;;;;;;;;;1.00;1.00;;;;;14.44;39.17;97742.13;5000931;27;101684;-79
2022/02/06 10:41:28;;;;;;;;;1.50;1.25;;;;;14.44;38.76;97755.72;4988538;28;103380;-79
2022/02/06 10:44:10;;;;;;;;;1.25;1.00;;;;;14.45;39.20;97738.34;4995307;27;110358;-79
2022/02/06 10:46:58;;;;;;;;;2.25;1.00;;;;;14.45;39.12;97735.63;5006266;27;101787;-79
2022/02/06 10:49:26;;;;;;;;;1.25;1.25;;;;;14.44;38.95;97734.81;4996685;28;109717;-79
2022/02/06 10:52:00;;;;;;;;;1.00;1.00;;;;;14.44;39.27;97723.09;4985138;28;103401;-80
2022/02/06 10:54:27;;;;;;;;;2.50;1.50;;;;;14.44;38.89;97717.66;4999475;27;101944;-79
2022/02/06 10:57:03;;;;;;;;;1.25;1.25;;;;;14.45;39.10;97713.88;4996160;27;102322;-79
2022/02/06 10:59:39;;;;;;;;;2.00;1.00;;;;;14.44;38.87;97707.59;4994104;28;102120;-79
2022/02/06 11:02:24;;;;;;;;;1.00;1.00;;;;;14.44;38.85;97707.59;4996378;27;108450;-79
2022/02/06 11:04:57;;;;;;;;;0.50;0.50;;;;;14.45;39.20;97694.84;5003861;27;101934;-79
2022/02/06 11:07:24;;;;;;;;;2.00;1.00;;;;;14.43;39.21;97689.63;4993491;28;101809;-79
2022/02/06 11:09:53;;;;;;;;;2.00;1.00;;;;;14.44;39.23;97685.00;4996948;28;101817;-79
2022/02/06 11:12:21;;;;;;;;;1.00;1.00;;;;;14.44;38.51;97677.69;4996357;27;103391;-79
2022/02/06 11:14:51;;;;;;;;;1.00;1.00;;;;;14.45;38.88;97682.06;4994043;27;102108;-79
2022/02/06 11:17:20;;;;;;;;;1.00;1.00;;;;;14.47;39.20;97689.94;5001359;27;101651;-79
2022/02/06 11:20:00;;;;;;;;;1.75;1.00;;;;;14.47;39.24;97682.63;4998331;27;102126;-79
2022/02/06 11:22:27;;;;;;;;;1.00;1.00;;;;;14.47;39.35;97679.06;5005550;27;103456;-79
2022/02/06 11:24:54;;;;;;;;;1.25;1.00;;;;;14.49;39.00;97687.81;5003061;27;101635;-79
2022/02/06 11:27:22;;;;;;;;;1.00;1.00;;;;;14.50;39.09;97682.09;5003336;27;101744;-79
2022/02/06 11:29:49;;;;;;;;;0.00;0.00;;;;;14.51;39.19;97672.06;5018394;27;101738;-79
2022/02/06 11:32:16;;;;;;;;;1.25;1.25;;;;;14.53;38.91;97672.66;4995494;28;103380;-79
2022/02/06 11:34:43;;;;;;;;;0.75;0.75;;;;;14.53;38.78;97669.94;5006261;27;102147;-79
2022/02/06 11:43:53;;;;;;;;;2.50;1.00;;;;;14.54;39.36;97657.97;5001203;27;107967;-79
2022/02/06 11:46:54;;;;;;;;;1.00;1.00;;;;;14.54;39.16;97657.97;4995059;28;102200;-79
2022/02/06 11:49:23;;;;;;;;;2.00;1.50;;;;;14.55;38.68;97648.72;5001250;28;101905;-79
2022/02/06 11:51:55;;;;;;;;;1.00;1.00;;;;;14.55;38.66;97665.03;4999819;28;102120;-79
2022/02/06 11:54:31;;;;;;;;;2.00;2.00;;;;;14.56;39.19;97658.53;4996622;27;103395;-79
2022/02/06 11:57:17;;;;;;;;;1.00;1.00;;;;;14.56;39.28;97658.53;4991300;28;102076;-79
2022/02/06 12:00:08;;;;;;;;;1.50;1.00;;;;;14.56;39.51;97653.94;5004486;27;101737;-79
2022/02/06 12:02:42;;;;;;;;;1.25;1.00;;;;;14.57;38.74;97662.91;4991190;28;101753;-80
2022/02/06 12:05:19;;;;;;;;;1.00;1.00;;;;;14.57;39.09;97660.19;4996047;27;108372;-79
2022/02/06 12:07:52;;;;;;;;;2.00;2.00;;;;;14.58;39.21;97653.69;5001469;27;101996;-79
2022/02/06 12:10:43;;;;;;;;;1.00;1.00;;;;;14.57;39.25;97652.03;4984972;28;101977;-79
2022/02/06 12:13:20;;;;;;;;;1.00;1.00;;;;;14.58;39.00;97648.25;4993930;27;102127;-79
2022/02/06 12:15:50;;;;;;;;;2.00;1.50;;;;;14.56;39.32;97643.03;4989269;27;103642;-79
2022/02/06 12:18:30;;;;;;;;;0.00;0.00;;;;;14.58;38.73;97640.09;5002628;27;101627;-79
2022/02/06 12:21:09;;;;;;;;;1.00;1.00;;;;;14.58;39.42;97640.09;4990960;28;102269;-79
2022/02/06 12:23:44;;;;;;;;;0.50;0.00;;;;;14.58;39.40;97634.63;5000762;27;101925;-79
2022/02/06 12:26:30;;;;;;;;;1.00;1.00;;;;;14.57;38.77;97627.53;4994860;28;107921;-79
2022/02/06 12:29:06;;;;;;;;;1.50;0.50;;;;;14.56;39.22;97629.44;4996140;28;101670;-79
2022/02/06 12:31:49;;;;;;;;;1.25;1.00;;;;;14.57;38.69;97608.50;4998696;27;101770;-79
2022/02/06 12:37:38;;;;;;;;;1.25;1.00;;;;;14.58;39.33;97615.59;4996214;27;107665;-79
2022/02/06 12:40:10;;;;;;;;;0.50;0.50;;;;;14.58;39.15;97597.38;4991238;28;102359;-79
2022/02/06 12:42:43;;;;;;;;;1.25;1.00;;;;;14.59;39.01;97587.31;4994785;28;101785;-79
2022/02/06 12:45:20;;;;;;;;;1.00;1.00;;;;;14.58;38.73;97585.66;4993489;28;102147;-79
2022/02/06 12:47:54;;;;;;;;;1.00;1.00;;;;;14.59;38.83;97587.31;4984644;27;103394;-79
2022/02/06 12:50:27;;;;;;;;;1.00;1.00;;;;;14.58;38.91;97582.94;4993856;28;102159;-80
2022/02/06 12:52:54;;;;;;;;;1.00;1.00;;;;;14.57;38.73;97582.13;4992892;27;102059;-79
2022/02/06 12:55:22;;;;;;;;;1.00;0.25;;;;;14.57;38.87;97575.84;4990381;28;102069;-79
2022/02/06 12:57:52;;;;;;;;;1.00;1.00;;;;;14.58;38.74;97574.78;4993590;27;103507;-79
2022/02/06 13:00:26;;;;;;;;;2.25;1.75;;;;;14.56;39.21;97552.44;4988198;27;102109;-79
2022/02/06 13:02:54;;;;;;;;;2.25;0.25;;;;;14.55;38.96;97554.34;4990485;27;104426;-79
2022/02/06 13:05:21;;;;;;;;;3.00;1.50;;;;;14.56;39.29;97547.00;4990706;27;103104;-79
2022/02/06 13:07:49;;;;;;;;;1.00;1.00;;;;;14.55;38.84;97546.19;4995302;27;103455;-79
2022/02/06 13:10:16;;;;;;;;;0.25;0.25;;;;;14.55;39.38;97534.47;4991073;28;101652;-79
2022/02/06 13:12:54;;;;;;;;;0.50;0.50;;;;;14.54;39.32;97524.69;5004254;27;103599;-79
2022/02/06 13:15:43;;;;;;;;;1.75;1.00;;;;;14.55;38.77;97518.97;4992015;28;102153;-79
2022/02/06 13:21:00;;;;;;;;;1.50;1.00;;;;;14.55;39.36;97520.88;4993827;28;101970;-79
2022/02/06 13:23:47;;;;;;;;;2.25;1.25;;;;;14.57;39.37;97516.00;5001941;27;102151;-79
2022/02/06 13:26:24;;;;;;;;;1.50;1.00;;;;;14.56;39.38;97536.13;5003964;28;102162;-79
2022/02/06 13:31:40;;;;;;;;;2.00;1.00;;;;;14.56;38.75;97525.25;4995757;28;101702;-79
2022/02/06 13:34:26;;;;;;;;;1.50;1.00;;;;;14.57;39.22;97518.72;4992187;27;102235;-79
2022/02/06 13:37:08;;;;;;;;;1.00;1.00;;;;;14.56;39.21;97507.03;5002211;28;102246;-79
2022/02/06 13:39:42;;;;;;;;;1.00;1.00;;;;;14.56;39.23;97517.06;4982744;28;108276;-79
2022/02/06 13:42:21;;;;;;;;;2.50;1.75;;;;;14.56;39.43;97503.47;4988157;28;102312;-79
2022/02/06 13:45:13;;;;;;;;;0.50;0.50;;;;;14.56;39.00;97507.03;4997625;27;101763;-79
2022/02/06 13:47:40;;;;;;;;;1.25;1.25;;;;;14.56;39.36;97504.31;4987221;28;102720;-79
2022/02/06 13:50:11;;;;;;;;;3.00;2.00;;;;;14.56;39.50;97503.47;4996170;27;103614;-79
2022/02/06 13:52:45;;;;;;;;;1.25;1.25;;;;;14.55;39.23;97497.22;5002678;27;102016;-79
2022/02/06 13:55:16;;;;;;;;;1.75;1.00;;;;;14.56;38.66;97487.97;4994972;27;101834;-79
2022/02/06 13:57:45;;;;;;;;;1.50;1.00;;;;;14.56;39.40;97482.53;4997569;28;101857;-79
2022/02/06 14:00:16;;;;;;;;;2.25;1.50;;;;;14.56;39.10;97481.72;4999047;27;103722;-79
2022/02/06 14:02:53;;;;;;;;;0.75;0.75;;;;;14.56;39.21;97459.94;4988048;27;101767;-79